sensor_id;sensor_type;location;lat;lon;timestamp;P1;P2;P0
77239;PMS7003;66258;53.170;-2.240;2023-04-24T00:01:52;3964.00;3964.00;3964.00
77239;PMS7003;66258;53.170;-2.240;2023-04-24T00:04:20;17.75;16.75;13.25
77239;PMS7003;66258;53.170;-2.240;2023-04-24T00:06:47;3973.00;3973.00;3973.00
77239;PMS7003;66258;53.170;-2.240;2023-04-24T00:09:17;3973.50;3973.50;3973.50
77239;PMS7003;66258;53.170;-2.240;2023-04-24T00:11:44;3882.50;3882.50;3882.50
77239;PMS7003;66258;53.170;-2.240;2023-04-24T00:14:12;3346.50;3346.50;3346.25
77239;PMS7003;66258;53.170;-2.240;2023-04-24T00:16:39;3972.20;3972.20;3972.20
77239;PMS7003;66258;53.170;-2.240;2023-04-24T00:19:07;3487.80;3487.80;3472.40
77239;PMS7003;66258;53.170;-2.240;2023-04-24T00:21:35;3605.00;3605.00;3604.33
77239;PMS7003;66258;53.170;-2.240;2023-04-24T00:24:03;2623.60;2613.80;2580.60
77239;PMS7003;66258;53.170;-2.240;2023-04-24T00:26:32;3896.25;3896.25;3896.25
77239;PMS7003;66258;53.170;-2.240;2023-04-24T00:29:00;3885.20;3885.20;3885.20
77239;PMS7003;66258;53.170;-2.240;2023-04-24T00:31:27;4040.60;4040.60;4040.60
77239;PMS7003;66258;53.170;-2.240;2023-04-24T00:33:55;4018.25;4018.25;4018.25
77239;PMS7003;66258;53.170;-2.240;2023-04-24T00:36:22;3928.00;3927.80;3925.40
77239;PMS7003;66258;53.170;-2.240;2023-04-24T00:38:50;3525.00;3520.20;3496.20
77239;PMS7003;66258;53.170;-2.240;2023-04-24T00:41:17;3970.75;3970.75;3970.75
77239;PMS7003;66258;53.170;-2.240;2023-04-24T00:43:47;4042.50;4042.50;4042.50
77239;PMS7003;66258;53.170;-2.240;2023-04-24T00:46:15;1078.60;1077.80;989.60
77239;PMS7003;66258;53.170;-2.240;2023-04-24T00:48:43;30.50;30.50;23.25
77239;PMS7003;66258;53.170;-2.240;2023-04-24T00:51:12;3929.50;3929.50;3929.50
77239;PMS7003;66258;53.170;-2.240;2023-04-24T00:53:40;112.40;110.80;98.00
77239;PMS7003;66258;53.170;-2.240;2023-04-24T00:56:08;3916.80;3916.80;3916.40
77239;PMS7003;66258;53.170;-2.240;2023-04-24T00:58:37;609.75;608.50;605.75
77239;PMS7003;66258;53.170;-2.240;2023-04-24T01:01:07;1674.25;1672.50;1648.75
77239;PMS7003;66258;53.170;-2.240;2023-04-24T01:03:36;158.25;152.50;142.50
77239;PMS7003;66258;53.170;-2.240;2023-04-24T01:06:04;3403.20;3400.20;3393.40
77239;PMS7003;66258;53.170;-2.240;2023-04-24T01:08:34;3729.75;3729.75;3729.75
77239;PMS7003;66258;53.170;-2.240;2023-04-24T01:11:03;4006.50;4006.50;4006.50
77239;PMS7003;66258;53.170;-2.240;2023-04-24T01:13:31;4056.75;4056.75;4056.75
77239;PMS7003;66258;53.170;-2.240;2023-04-24T01:15:59;4037.75;4037.75;4037.75
77239;PMS7003;66258;53.170;-2.240;2023-04-24T01:18:30;729.80;721.40;691.40
77239;PMS7003;66258;53.170;-2.240;2023-04-24T01:20:58;390.60;380.20;362.60
77239;PMS7003;66258;53.170;-2.240;2023-04-24T01:23:31;95.60;94.20;83.00
77239;PMS7003;66258;53.170;-2.240;2023-04-24T01:25:59;92.40;88.80;83.00
77239;PMS7003;66258;53.170;-2.240;2023-04-24T01:28:26;94.60;92.60;82.40
77239;PMS7003;66258;53.170;-2.240;2023-04-24T01:30:54;94.20;89.80;74.60
77239;PMS7003;66258;53.170;-2.240;2023-04-24T01:33:22;2845.80;2843.40;2830.00
77239;PMS7003;66258;53.170;-2.240;2023-04-24T01:35:50;34.67;34.33;27.67
77239;PMS7003;66258;53.170;-2.240;2023-04-24T01:38:18;486.60;484.40;461.00
77239;PMS7003;66258;53.170;-2.240;2023-04-24T01:40:48;655.80;652.20;616.40
77239;PMS7003;66258;53.170;-2.240;2023-04-24T01:43:16;90.75;86.00;66.50
77239;PMS7003;66258;53.170;-2.240;2023-04-24T01:45:44;85.00;76.75;57.50
77239;PMS7003;66258;53.170;-2.240;2023-04-24T01:48:13;349.20;345.00;287.80
77239;PMS7003;66258;53.170;-2.240;2023-04-24T01:50:40;182.40;180.80;143.40
77239;PMS7003;66258;53.170;-2.240;2023-04-24T01:53:08;3.00;3.00;2.00
77239;PMS7003;66258;53.170;-2.240;2023-04-24T01:55:35;2.00;2.00;2.00
77239;PMS7003;66258;53.170;-2.240;2023-04-24T01:58:05;7.75;6.50;4.50
77239;PMS7003;66258;53.170;-2.240;2023-04-24T02:00:33;11.60;11.60;9.00
77239;PMS7003;66258;53.170;-2.240;2023-04-24T02:03:01;176.40;175.80;144.00
77239;PMS7003;66258;53.170;-2.240;2023-04-24T02:05:29;74.40;62.00;42.40
77239;PMS7003;66258;53.170;-2.240;2023-04-24T02:07:56;2.50;2.50;1.75
77239;PMS7003;66258;53.170;-2.240;2023-04-24T02:10:25;2.25;2.25;1.75
77239;PMS7003;66258;53.170;-2.240;2023-04-24T02:12:52;4.00;4.00;2.25
77239;PMS7003;66258;53.170;-2.240;2023-04-24T02:15:22;0.75;0.75;0.00
77239;PMS7003;66258;53.170;-2.240;2023-04-24T02:17:50;2.25;2.25;1.75
77239;PMS7003;66258;53.170;-2.240;2023-04-24T02:20:18;3.00;3.00;1.75
77239;PMS7003;66258;53.170;-2.240;2023-04-24T02:22:45;2.75;2.75;2.50
77239;PMS7003;66258;53.170;-2.240;2023-04-24T02:25:13;4.00;4.00;2.00
77239;PMS7003;66258;53.170;-2.240;2023-04-24T02:27:40;7.75;2.75;0.00
77239;PMS7003;66258;53.170;-2.240;2023-04-24T02:30:10;1.00;1.00;1.00
77239;PMS7003;66258;53.170;-2.240;2023-04-24T02:32:40;242.60;242.60;241.00
77239;PMS7003;66258;53.170;-2.240;2023-04-24T02:35:08;494.20;492.60;417.60
77239;PMS7003;66258;53.170;-2.240;2023-04-24T02:37:36;82.25;73.00;70.75
77239;PMS7003;66258;53.170;-2.240;2023-04-24T02:40:04;75.40;65.20;58.00
77239;PMS7003;66258;53.170;-2.240;2023-04-24T02:42:33;86.60;80.00;75.60
77239;PMS7003;66258;53.170;-2.240;2023-04-24T02:45:01;43.25;39.25;34.00
77239;PMS7003;66258;53.170;-2.240;2023-04-24T02:47:28;74.60;64.20;60.00
77239;PMS7003;66258;53.170;-2.240;2023-04-24T02:49:58;46.75;41.00;26.50
77239;PMS7003;66258;53.170;-2.240;2023-04-24T02:52:26;47.80;42.40;35.80
77239;PMS7003;66258;53.170;-2.240;2023-04-24T02:54:54;43.80;38.60;29.20
77239;PMS7003;66258;53.170;-2.240;2023-04-24T02:57:21;88.00;81.40;80.20
77239;PMS7003;66258;53.170;-2.240;2023-04-24T02:59:49;84.25;75.25;67.25
77239;PMS7003;66258;53.170;-2.240;2023-04-24T03:02:17;91.60;88.40;86.00
77239;PMS7003;66258;53.170;-2.240;2023-04-24T03:04:47;84.00;75.40;70.00
77239;PMS7003;66258;53.170;-2.240;2023-04-24T03:07:16;76.40;65.80;48.60
77239;PMS7003;66258;53.170;-2.240;2023-04-24T03:09:43;85.50;76.50;70.50
77239;PMS7003;66258;53.170;-2.240;2023-04-24T03:12:11;5.00;5.00;3.00
77239;PMS7003;66258;53.170;-2.240;2023-04-24T03:14:39;89.75;84.75;79.25
77239;PMS7003;66258;53.170;-2.240;2023-04-24T03:17:06;1876.40;1874.60;1841.00
77239;PMS7003;66258;53.170;-2.240;2023-04-24T03:19:34;84.40;75.00;63.40
77239;PMS7003;66258;53.170;-2.240;2023-04-24T03:22:01;88.80;82.80;71.60
77239;PMS7003;66258;53.170;-2.240;2023-04-24T03:24:31;89.50;84.75;81.00
77239;PMS7003;66258;53.170;-2.240;2023-04-24T03:26:59;92.40;89.20;83.20
77239;PMS7003;66258;53.170;-2.240;2023-04-24T03:29:27;87.00;79.80;76.40
77239;PMS7003;66258;53.170;-2.240;2023-04-24T03:31:55;7.75;7.75;5.75
77239;PMS7003;66258;53.170;-2.240;2023-04-24T03:34:23;402.80;400.60;387.00
77239;PMS7003;66258;53.170;-2.240;2023-04-24T03:36:51;73.00;61.80;57.20
77239;PMS7003;66258;53.170;-2.240;2023-04-24T03:39:19;88.25;83.25;78.75
77239;PMS7003;66258;53.170;-2.240;2023-04-24T03:41:48;77.60;66.40;63.40
77239;PMS7003;66258;53.170;-2.240;2023-04-24T03:44:16;6.75;4.00;2.75
77239;PMS7003;66258;53.170;-2.240;2023-04-24T03:46:44;76.60;66.00;57.40
77239;PMS7003;66258;53.170;-2.240;2023-04-24T03:49:12;85.20;73.80;60.00
77239;PMS7003;66258;53.170;-2.240;2023-04-24T03:51:40;283.80;274.80;250.40
77239;PMS7003;66258;53.170;-2.240;2023-04-24T03:54:07;976.40;973.80;963.40
77239;PMS7003;66258;53.170;-2.240;2023-04-24T03:56:36;355.25;352.00;334.00
77239;PMS7003;66258;53.170;-2.240;2023-04-24T03:59:05;4.00;4.00;1.75
77239;PMS7003;66258;53.170;-2.240;2023-04-24T04:01:33;1372.80;1370.40;1359.40
77239;PMS7003;66258;53.170;-2.240;2023-04-24T04:04:01;212.50;211.75;201.75
77239;PMS7003;66258;53.170;-2.240;2023-04-24T04:06:28;6.00;6.00;3.00
77239;PMS7003;66258;53.170;-2.240;2023-04-24T04:08:56;3103.00;3102.60;3098.20
77239;PMS7003;66258;53.170;-2.240;2023-04-24T04:11:24;3.50;3.50;2.00
77239;PMS7003;66258;53.170;-2.240;2023-04-24T04:13:52;3.25;3.25;2.25
77239;PMS7003;66258;53.170;-2.240;2023-04-24T04:16:22;20.50;18.25;12.75
77239;PMS7003;66258;53.170;-2.240;2023-04-24T04:18:50;5.00;5.00;3.00
77239;PMS7003;66258;53.170;-2.240;2023-04-24T04:21:18;5.50;5.50;4.25
77239;PMS7003;66258;53.170;-2.240;2023-04-24T04:23:46;96.50;94.25;77.50
77239;PMS7003;66258;53.170;-2.240;2023-04-24T04:26:14;1764.50;1762.75;1728.00
77239;PMS7003;66258;53.170;-2.240;2023-04-24T04:28:41;528.00;525.50;507.75
77239;PMS7003;66258;53.170;-2.240;2023-04-24T04:31:09;1615.20;1597.60;1565.40
77239;PMS7003;66258;53.170;-2.240;2023-04-24T04:33:38;1069.80;1055.00;1025.60
77239;PMS7003;66258;53.170;-2.240;2023-04-24T04:36:06;238.75;236.50;221.00
77239;PMS7003;66258;53.170;-2.240;2023-04-24T04:38:34;1678.20;1672.60;1645.80
77239;PMS7003;66258;53.170;-2.240;2023-04-24T04:41:01;91.00;85.75;71.50
77239;PMS7003;66258;53.170;-2.240;2023-04-24T04:43:29;387.00;382.75;365.00
77239;PMS7003;66258;53.170;-2.240;2023-04-24T04:45:57;61.40;51.80;43.80
77239;PMS7003;66258;53.170;-2.240;2023-04-24T04:48:25;89.75;83.00;72.25
77239;PMS7003;66258;53.170;-2.240;2023-04-24T04:50:55;28.80;27.20;21.40
77239;PMS7003;66258;53.170;-2.240;2023-04-24T04:53:22;84.80;75.20;60.00
77239;PMS7003;66258;53.170;-2.240;2023-04-24T04:55:52;83.25;71.75;70.50
77239;PMS7003;66258;53.170;-2.240;2023-04-24T04:58:20;85.60;77.00;75.20
77239;PMS7003;66258;53.170;-2.240;2023-04-24T05:00:48;89.25;82.75;82.00
77239;PMS7003;66258;53.170;-2.240;2023-04-24T05:03:16;86.50;76.75;75.75
77239;PMS7003;66258;53.170;-2.240;2023-04-24T05:05:46;8.00;3.75;1.00
77239;PMS7003;66258;53.170;-2.240;2023-04-24T05:08:17;64.80;54.60;49.60
77239;PMS7003;66258;53.170;-2.240;2023-04-24T05:10:53;92.40;88.00;85.40
77239;PMS7003;66258;53.170;-2.240;2023-04-24T05:13:21;2.00;2.00;1.00
77239;PMS7003;66258;53.170;-2.240;2023-04-24T05:16:04;83.00;71.00;63.00
77239;PMS7003;66258;53.170;-2.240;2023-04-24T05:18:33;3.50;3.50;2.00
77239;PMS7003;66258;53.170;-2.240;2023-04-24T05:21:01;49.80;44.00;37.20
77239;PMS7003;66258;53.170;-2.240;2023-04-24T05:23:30;75.75;65.50;56.75
77239;PMS7003;66258;53.170;-2.240;2023-04-24T05:25:57;77.60;65.60;58.80
77239;PMS7003;66258;53.170;-2.240;2023-04-24T05:28:24;17.00;14.25;11.50
77239;PMS7003;66258;53.170;-2.240;2023-04-24T05:30:51;42.20;37.80;30.80
77239;PMS7003;66258;53.170;-2.240;2023-04-24T05:33:18;69.00;58.20;53.40
77239;PMS7003;66258;53.170;-2.240;2023-04-24T05:35:45;6.50;3.00;0.75
77239;PMS7003;66258;53.170;-2.240;2023-04-24T05:38:13;58.60;51.00;33.00
77239;PMS7003;66258;53.170;-2.240;2023-04-24T05:40:43;1.00;1.00;0.00
77239;PMS7003;66258;53.170;-2.240;2023-04-24T05:43:11;69.20;58.00;37.80
77239;PMS7003;66258;53.170;-2.240;2023-04-24T05:45:38;29.75;27.25;16.50
77239;PMS7003;66258;53.170;-2.240;2023-04-24T05:48:06;68.20;58.80;36.20
77239;PMS7003;66258;53.170;-2.240;2023-04-24T05:50:33;495.20;490.60;455.00
77239;PMS7003;66258;53.170;-2.240;2023-04-24T05:53:03;95.60;92.40;90.40
77239;PMS7003;66258;53.170;-2.240;2023-04-24T05:55:31;507.25;506.50;499.25
77239;PMS7003;66258;53.170;-2.240;2023-04-24T05:58:00;787.00;783.60;742.60
77239;PMS7003;66258;53.170;-2.240;2023-04-24T06:00:28;3.00;3.00;1.75
77239;PMS7003;66258;53.170;-2.240;2023-04-24T06:02:56;85.20;74.60;63.40
77239;PMS7003;66258;53.170;-2.240;2023-04-24T06:05:25;898.00;895.40;863.80
77239;PMS7003;66258;53.170;-2.240;2023-04-24T06:07:52;811.00;810.80;790.20
77239;PMS7003;66258;53.170;-2.240;2023-04-24T06:10:20;748.00;747.00;733.60
77239;PMS7003;66258;53.170;-2.240;2023-04-24T06:12:47;3889.80;3889.60;3888.60
77239;PMS7003;66258;53.170;-2.240;2023-04-24T06:15:18;3922.50;3922.50;3922.50
77239;PMS7003;66258;53.170;-2.240;2023-04-24T06:17:45;2.75;2.75;1.75
77239;PMS7003;66258;53.170;-2.240;2023-04-24T06:20:13;3841.50;3840.75;3840.00
77239;PMS7003;66258;53.170;-2.240;2023-04-24T06:22:42;3927.00;3927.00;3927.00
77239;PMS7003;66258;53.170;-2.240;2023-04-24T06:25:10;1365.00;1365.00;1364.50
77239;PMS7003;66258;53.170;-2.240;2023-04-24T06:27:37;3474.80;3470.40;3467.20
77239;PMS7003;66258;53.170;-2.240;2023-04-24T06:30:06;3844.33;3844.33;3844.33
77239;PMS7003;66258;53.170;-2.240;2023-04-24T06:32:36;3978.25;3978.25;3978.25
77239;PMS7003;66258;53.170;-2.240;2023-04-24T06:35:05;2076.50;2063.00;2052.25
77239;PMS7003;66258;53.170;-2.240;2023-04-24T06:37:34;3577.25;3575.25;3575.25
77239;PMS7003;66258;53.170;-2.240;2023-04-24T06:40:02;3664.25;3661.50;3659.50
77239;PMS7003;66258;53.170;-2.240;2023-04-24T06:42:34;3961.75;3961.75;3961.75
77239;PMS7003;66258;53.170;-2.240;2023-04-24T06:45:02;2167.00;2167.00;2166.75
77239;PMS7003;66258;53.170;-2.240;2023-04-24T06:47:30;3881.75;3881.75;3881.75
77239;PMS7003;66258;53.170;-2.240;2023-04-24T06:49:59;3908.75;3908.75;3908.75
77239;PMS7003;66258;53.170;-2.240;2023-04-24T06:52:27;968.00;965.75;965.50
77239;PMS7003;66258;53.170;-2.240;2023-04-24T06:54:59;2903.75;2903.75;2903.75
77239;PMS7003;66258;53.170;-2.240;2023-04-24T06:57:29;3125.00;3121.75;3110.75
77239;PMS7003;66258;53.170;-2.240;2023-04-24T06:59:56;3870.75;3870.75;3870.75
77239;PMS7003;66258;53.170;-2.240;2023-04-24T07:02:24;2607.25;2607.25;2606.75
77239;PMS7003;66258;53.170;-2.240;2023-04-24T07:04:52;2.25;2.25;1.00
77239;PMS7003;66258;53.170;-2.240;2023-04-24T07:07:21;5.25;5.25;4.50
77239;PMS7003;66258;53.170;-2.240;2023-04-24T07:09:51;1540.20;1540.00;1540.00
77239;PMS7003;66258;53.170;-2.240;2023-04-24T07:12:18;3491.20;3491.20;3484.20
77239;PMS7003;66258;53.170;-2.240;2023-04-24T07:14:46;3615.00;3614.50;3613.75
77239;PMS7003;66258;53.170;-2.240;2023-04-24T07:17:13;3775.75;3775.00;3774.00
77239;PMS7003;66258;53.170;-2.240;2023-04-24T07:19:40;3547.00;3543.00;3538.00
77239;PMS7003;66258;53.170;-2.240;2023-04-24T07:22:10;3492.50;3488.00;3480.25
77239;PMS7003;66258;53.170;-2.240;2023-04-24T07:24:39;3840.40;3839.60;3837.80
77239;PMS7003;66258;53.170;-2.240;2023-04-24T07:27:06;3752.00;3752.00;3749.60
77239;PMS7003;66258;53.170;-2.240;2023-04-24T07:29:34;3586.50;3585.00;3580.50
77239;PMS7003;66258;53.170;-2.240;2023-04-24T07:32:02;2694.60;2689.80;2669.80
77239;PMS7003;66258;53.170;-2.240;2023-04-24T07:34:30;3370.00;3365.00;3353.80
77239;PMS7003;66258;53.170;-2.240;2023-04-24T07:36:57;2044.00;2030.40;2022.60
77239;PMS7003;66258;53.170;-2.240;2023-04-24T07:39:26;3.50;2.50;2.25
77239;PMS7003;66258;53.170;-2.240;2023-04-24T07:41:55;5.75;5.75;4.50
77239;PMS7003;66258;53.170;-2.240;2023-04-24T07:44:24;3.00;3.00;2.75
77239;PMS7003;66258;53.170;-2.240;2023-04-24T07:46:51;3804.50;3804.50;3804.50
77239;PMS7003;66258;53.170;-2.240;2023-04-24T07:49:19;8.50;7.75;6.75
77239;PMS7003;66258;53.170;-2.240;2023-04-24T07:51:47;2656.80;2656.40;2655.20
77239;PMS7003;66258;53.170;-2.240;2023-04-24T07:54:16;2670.67;2670.67;2669.67
77239;PMS7003;66258;53.170;-2.240;2023-04-24T07:56:45;3784.25;3784.25;3784.25
77239;PMS7003;66258;53.170;-2.240;2023-04-24T07:59:15;2842.25;2842.25;2841.75
77239;PMS7003;66258;53.170;-2.240;2023-04-24T08:01:43;2451.25;2451.25;2451.25
77239;PMS7003;66258;53.170;-2.240;2023-04-24T08:04:10;2931.40;2926.40;2920.40
77239;PMS7003;66258;53.170;-2.240;2023-04-24T08:06:38;3093.20;3086.40;3084.60
77239;PMS7003;66258;53.170;-2.240;2023-04-24T08:09:06;3738.25;3738.25;3738.25
77239;PMS7003;66258;53.170;-2.240;2023-04-24T08:11:34;3682.60;3682.60;3682.60
77239;PMS7003;66258;53.170;-2.240;2023-04-24T08:14:02;3713.25;3713.25;3713.25
77239;PMS7003;66258;53.170;-2.240;2023-04-24T08:16:31;2215.00;2202.40;2158.80
77239;PMS7003;66258;53.170;-2.240;2023-04-24T08:18:59;15.00;12.00;9.50
77239;PMS7003;66258;53.170;-2.240;2023-04-24T08:21:28;7.00;4.00;1.67
77239;PMS7003;66258;53.170;-2.240;2023-04-24T08:23:55;8.33;5.00;3.00
77239;PMS7003;66258;53.170;-2.240;2023-04-24T08:26:23;3.33;3.33;2.00
77239;PMS7003;66258;53.170;-2.240;2023-04-24T08:28:51;5.33;3.67;3.00
77239;PMS7003;66258;53.170;-2.240;2023-04-24T08:31:18;202.50;200.75;198.00
77239;PMS7003;66258;53.170;-2.240;2023-04-24T08:33:48;7.00;5.50;3.00
77239;PMS7003;66258;53.170;-2.240;2023-04-24T08:36:15;3.33;3.33;2.00
77239;PMS7003;66258;53.170;-2.240;2023-04-24T08:38:43;5.00;4.00;2.50
77239;PMS7003;66258;53.170;-2.240;2023-04-24T08:41:11;7.00;7.00;5.00
77239;PMS7003;66258;53.170;-2.240;2023-04-24T08:43:40;6.00;6.00;4.75
77239;PMS7003;66258;53.170;-2.240;2023-04-24T08:46:09;18.00;14.00;10.50
77239;PMS7003;66258;53.170;-2.240;2023-04-24T08:48:38;3.25;3.25;1.75
77239;PMS7003;66258;53.170;-2.240;2023-04-24T08:51:09;7.00;4.67;2.67
77239;PMS7003;66258;53.170;-2.240;2023-04-24T08:53:37;10.00;4.00;2.00
77239;PMS7003;66258;53.170;-2.240;2023-04-24T08:56:05;3.25;3.25;1.75
77239;PMS7003;66258;53.170;-2.240;2023-04-24T08:58:32;5.75;4.25;2.00
77239;PMS7003;66258;53.170;-2.240;2023-04-24T09:01:01;5.75;4.25;2.75
77239;PMS7003;66258;53.170;-2.240;2023-04-24T09:03:29;5.75;3.50;3.00
77239;PMS7003;66258;53.170;-2.240;2023-04-24T09:05:58;3.50;3.00;1.25
77239;PMS7003;66258;53.170;-2.240;2023-04-24T09:08:28;4.25;4.25;2.00
77239;PMS7003;66258;53.170;-2.240;2023-04-24T09:10:56;4.50;4.50;2.00
77239;PMS7003;66258;53.170;-2.240;2023-04-24T09:13:23;5.25;5.25;3.50
77239;PMS7003;66258;53.170;-2.240;2023-04-24T09:15:51;37.00;34.75;24.75
77239;PMS7003;66258;53.170;-2.240;2023-04-24T09:18:18;4.75;4.75;3.75
77239;PMS7003;66258;53.170;-2.240;2023-04-24T09:20:58;5.50;5.50;2.75
77239;PMS7003;66258;53.170;-2.240;2023-04-24T09:23:28;36.75;27.75;21.50
77239;PMS7003;66258;53.170;-2.240;2023-04-24T09:25:55;7.00;5.33;5.33
77239;PMS7003;66258;53.170;-2.240;2023-04-24T09:28:27;33.25;31.25;24.00
77239;PMS7003;66258;53.170;-2.240;2023-04-24T09:31:03;32.50;25.50;22.50
77239;PMS7003;66258;53.170;-2.240;2023-04-24T09:33:32;10.00;9.67;7.33
77239;PMS7003;66258;53.170;-2.240;2023-04-24T09:35:59;3.25;3.25;2.50
77239;PMS7003;66258;53.170;-2.240;2023-04-24T09:38:33;5.67;5.67;3.00
77239;PMS7003;66258;53.170;-2.240;2023-04-24T09:41:03;7.00;6.00;4.00
77239;PMS7003;66258;53.170;-2.240;2023-04-24T09:43:32;4.33;3.00;1.33
77239;PMS7003;66258;53.170;-2.240;2023-04-24T09:46:04;5.00;5.00;5.00
77239;PMS7003;66258;53.170;-2.240;2023-04-24T09:48:33;4.00;3.25;1.25
77239;PMS7003;66258;53.170;-2.240;2023-04-24T09:51:03;4.75;3.00;2.00
77239;PMS7003;66258;53.170;-2.240;2023-04-24T09:53:33;8.67;6.00;4.00
77239;PMS7003;66258;53.170;-2.240;2023-04-24T09:56:07;7.75;6.25;4.50
77239;PMS7003;66258;53.170;-2.240;2023-04-24T09:58:35;5.33;5.33;4.33
77239;PMS7003;66258;53.170;-2.240;2023-04-24T10:01:05;13.00;13.00;12.75
77239;PMS7003;66258;53.170;-2.240;2023-04-24T10:03:33;4.25;4.25;3.00
77239;PMS7003;66258;53.170;-2.240;2023-04-24T10:06:01;5.33;5.33;4.33
77239;PMS7003;66258;53.170;-2.240;2023-04-24T10:08:34;22.00;22.00;19.25
77239;PMS7003;66258;53.170;-2.240;2023-04-24T10:11:04;24.25;24.25;22.00
77239;PMS7003;66258;53.170;-2.240;2023-04-24T10:13:34;34.25;31.00;26.50
77239;PMS7003;66258;53.170;-2.240;2023-04-24T10:16:03;6.33;4.33;2.33
77239;PMS7003;66258;53.170;-2.240;2023-04-24T10:18:32;3.25;3.25;2.00
77239;PMS7003;66258;53.170;-2.240;2023-04-24T10:21:01;4.25;3.75;2.00
77239;PMS7003;66258;53.170;-2.240;2023-04-24T10:23:29;12.00;11.33;9.67
77239;PMS7003;66258;53.170;-2.240;2023-04-24T10:25:59;32.00;31.50;26.25
77239;PMS7003;66258;53.170;-2.240;2023-04-24T10:28:27;1.00;1.00;0.25
77239;PMS7003;66258;53.170;-2.240;2023-04-24T10:30:57;1.00;1.00;0.00
77239;PMS7003;66258;53.170;-2.240;2023-04-24T10:33:27;2.00;2.00;0.25
77239;PMS7003;66258;53.170;-2.240;2023-04-24T10:35:56;1.75;1.75;1.00
77239;PMS7003;66258;53.170;-2.240;2023-04-24T10:38:25;4.00;2.00;0.00
77239;PMS7003;66258;53.170;-2.240;2023-04-24T10:40:59;3.25;3.25;0.75
77239;PMS7003;66258;53.170;-2.240;2023-04-24T10:43:39;2.25;2.25;0.75
77239;PMS7003;66258;53.170;-2.240;2023-04-24T10:46:06;61.00;49.50;42.25
77239;PMS7003;66258;53.170;-2.240;2023-04-24T10:48:35;6.50;6.50;4.75
77239;PMS7003;66258;53.170;-2.240;2023-04-24T10:51:11;6.75;5.50;3.25
77239;PMS7003;66258;53.170;-2.240;2023-04-24T10:53:40;3.00;3.00;2.00
77239;PMS7003;66258;53.170;-2.240;2023-04-24T10:56:10;3.75;3.75;2.00
77239;PMS7003;66258;53.170;-2.240;2023-04-24T10:58:38;5.75;3.50;2.00
77239;PMS7003;66258;53.170;-2.240;2023-04-24T11:01:06;4.75;3.25;2.00
77239;PMS7003;66258;53.170;-2.240;2023-04-24T11:03:34;7.50;5.00;2.50
77239;PMS7003;66258;53.170;-2.240;2023-04-24T11:06:04;2.25;2.25;1.75
77239;PMS7003;66258;53.170;-2.240;2023-04-24T11:08:36;3.75;3.75;1.75
77239;PMS7003;66258;53.170;-2.240;2023-04-24T11:11:11;3.50;2.50;1.00
77239;PMS7003;66258;53.170;-2.240;2023-04-24T11:16:34;6.67;6.67;3.00
77239;PMS7003;66258;53.170;-2.240;2023-04-24T11:19:06;9.25;9.25;7.50
77239;PMS7003;66258;53.170;-2.240;2023-04-24T11:21:41;22.75;22.75;20.75
77239;PMS7003;66258;53.170;-2.240;2023-04-24T11:24:23;22.50;21.25;17.75
77239;PMS7003;66258;53.170;-2.240;2023-04-24T11:26:58;7.50;7.50;6.00
77239;PMS7003;66258;53.170;-2.240;2023-04-24T11:29:38;6.25;5.00;2.25
77239;PMS7003;66258;53.170;-2.240;2023-04-24T11:32:14;3.00;3.00;1.00
77239;PMS7003;66258;53.170;-2.240;2023-04-24T11:34:49;3.00;3.00;2.25
77239;PMS7003;66258;53.170;-2.240;2023-04-24T11:37:19;2.00;2.00;1.25
77239;PMS7003;66258;53.170;-2.240;2023-04-24T11:39:49;10.00;8.00;4.00
77239;PMS7003;66258;53.170;-2.240;2023-04-24T11:42:20;4.00;3.50;2.00
77239;PMS7003;66258;53.170;-2.240;2023-04-24T11:44:49;5.00;3.00;2.00
77239;PMS7003;66258;53.170;-2.240;2023-04-24T11:47:29;9.50;9.50;7.25
77239;PMS7003;66258;53.170;-2.240;2023-04-24T11:49:57;53.25;45.00;36.75
77239;PMS7003;66258;53.170;-2.240;2023-04-24T11:52:26;4.00;4.00;2.33
77239;PMS7003;66258;53.170;-2.240;2023-04-24T11:54:54;6.00;6.00;3.00
77239;PMS7003;66258;53.170;-2.240;2023-04-24T11:57:23;4.33;4.33;3.00
77239;PMS7003;66258;53.170;-2.240;2023-04-24T11:59:52;3.33;3.33;2.00
77239;PMS7003;66258;53.170;-2.240;2023-04-24T12:02:20;6.33;3.33;2.67
77239;PMS7003;66258;53.170;-2.240;2023-04-24T12:04:49;4.33;4.33;2.00
77239;PMS7003;66258;53.170;-2.240;2023-04-24T12:07:18;19.25;18.00;16.25
77239;PMS7003;66258;53.170;-2.240;2023-04-24T12:09:46;10.00;10.00;7.00
77239;PMS7003;66258;53.170;-2.240;2023-04-24T12:12:18;13.67;12.67;11.67
77239;PMS7003;66258;53.170;-2.240;2023-04-24T12:14:52;9.25;9.25;8.00
77239;PMS7003;66258;53.170;-2.240;2023-04-24T12:17:24;10.00;7.00;4.50
77239;PMS7003;66258;53.170;-2.240;2023-04-24T12:19:57;8.00;8.00;6.33
77239;PMS7003;66258;53.170;-2.240;2023-04-24T12:22:26;4.67;4.67;4.00
77239;PMS7003;66258;53.170;-2.240;2023-04-24T12:25:01;7.00;7.00;4.33
77239;PMS7003;66258;53.170;-2.240;2023-04-24T12:27:31;3.50;3.50;3.00
77239;PMS7003;66258;53.170;-2.240;2023-04-24T12:30:01;7.75;7.75;5.75
77239;PMS7003;66258;53.170;-2.240;2023-04-24T12:32:30;7.00;7.00;4.00
77239;PMS7003;66258;53.170;-2.240;2023-04-24T12:34:59;4.00;4.00;3.00
77239;PMS7003;66258;53.170;-2.240;2023-04-24T12:37:32;3.67;3.67;3.67
77239;PMS7003;66258;53.170;-2.240;2023-04-24T12:40:01;4.00;4.00;1.25
77239;PMS7003;66258;53.170;-2.240;2023-04-24T12:42:31;3.25;3.25;2.00
77239;PMS7003;66258;53.170;-2.240;2023-04-24T12:45:01;3.00;3.00;2.00
77239;PMS7003;66258;53.170;-2.240;2023-04-24T12:47:30;3.00;3.00;2.00
77239;PMS7003;66258;53.170;-2.240;2023-04-24T12:50:01;6.25;5.00;4.00
77239;PMS7003;66258;53.170;-2.240;2023-04-24T12:52:29;3.75;2.50;1.75
77239;PMS7003;66258;53.170;-2.240;2023-04-24T12:54:59;3.00;1.25;1.00
77239;PMS7003;66258;53.170;-2.240;2023-04-24T12:57:27;4.25;4.25;2.50
77239;PMS7003;66258;53.170;-2.240;2023-04-24T12:59:56;4.50;4.50;3.00
77239;PMS7003;66258;53.170;-2.240;2023-04-24T13:02:26;3.25;3.25;2.75
77239;PMS7003;66258;53.170;-2.240;2023-04-24T13:04:55;2.00;2.00;2.00
77239;PMS7003;66258;53.170;-2.240;2023-04-24T13:07:22;7.00;5.00;3.00
77239;PMS7003;66258;53.170;-2.240;2023-04-24T13:09:49;4.50;3.00;2.00
77239;PMS7003;66258;53.170;-2.240;2023-04-24T13:12:17;3.25;3.25;2.25
77239;PMS7003;66258;53.170;-2.240;2023-04-24T13:14:45;5.00;3.50;2.50
77239;PMS7003;66258;53.170;-2.240;2023-04-24T13:17:12;5.50;5.50;2.75
77239;PMS7003;66258;53.170;-2.240;2023-04-24T13:19:43;8.00;3.00;2.00
77239;PMS7003;66258;53.170;-2.240;2023-04-24T13:22:11;4.25;4.25;3.00
77239;PMS7003;66258;53.170;-2.240;2023-04-24T13:24:41;3.50;3.50;2.00
77239;PMS7003;66258;53.170;-2.240;2023-04-24T13:27:08;10.50;6.50;3.50
77239;PMS7003;66258;53.170;-2.240;2023-04-24T13:29:35;3.25;3.25;2.50
77239;PMS7003;66258;53.170;-2.240;2023-04-24T13:32:03;3.00;3.00;1.75
77239;PMS7003;66258;53.170;-2.240;2023-04-24T13:34:32;5.50;4.00;3.00
77239;PMS7003;66258;53.170;-2.240;2023-04-24T13:37:01;3.50;3.50;2.50
77239;PMS7003;66258;53.170;-2.240;2023-04-24T13:39:28;1.75;1.75;1.75
77239;PMS7003;66258;53.170;-2.240;2023-04-24T13:41:55;6.50;4.50;2.25
77239;PMS7003;66258;53.170;-2.240;2023-04-24T13:44:26;3.75;3.75;2.00